Time;durP1;ratioP1;P1;durP2;ratioP2;P2;SDS_P1;SDS_P2;PMS_P1;PMS_P2;Temp;Humidity;BMP_temperature;BMP_pressure;BME280_temperature;BME280_humidity;BME280_pressure;Samples;Min_cycle;Max_cycle;Signal;HPM_P1;HPM_P2
2022/01/05 00:02:24;;;;;;;9.90;4.97;;;6.10;97.30;;;;;;5038299;28;20242;-80
2022/01/05 00:04:50;;;;;;;11.57;5.13;;;6.10;97.30;;;;;;5038517;28;20650;-80
2022/01/05 00:07:16;;;;;;;10.90;4.80;;;6.10;97.30;;;;;;5037957;28;20419;-81
2022/01/05 00:09:43;;;;;;;9.07;4.20;;;6.10;97.30;;;;;;5038928;28;20501;-80
2022/01/05 00:12:10;;;;;;;11.20;4.83;;;6.10;97.30;;;;;;5034476;28;20219;-81
2022/01/05 00:14:36;;;;;;;9.93;4.87;;;6.10;97.30;;;;;;5030724;28;20419;-81
2022/01/05 00:17:02;;;;;;;11.37;4.67;;;6.10;97.30;;;;;;5032029;28;20465;-81
2022/01/05 00:19:27;;;;;;;12.70;5.97;;;6.10;97.30;;;;;;5037130;23;21079;-85
2022/01/05 00:21:53;;;;;;;10.80;5.00;;;6.10;97.30;;;;;;5028365;28;20407;-85
2022/01/05 00:24:18;;;;;;;9.83;5.10;;;6.00;97.30;;;;;;5028357;28;20172;-85
2022/01/05 00:26:44;;;;;;;10.93;5.30;;;6.10;97.30;;;;;;5028848;28;20200;-85
2022/01/05 00:29:09;;;;;;;11.10;5.27;;;6.10;97.30;;;;;;5029334;28;20663;-85
2022/01/05 00:31:35;;;;;;;17.80;5.80;;;6.10;97.30;;;;;;5028888;28;20272;-85
2022/01/05 00:34:00;;;;;;;13.83;5.67;;;6.10;97.30;;;;;;5028823;28;20260;-83
2022/01/05 00:36:26;;;;;;;9.17;4.83;;;6.10;97.30;;;;;;5028695;28;20216;-85
2022/01/05 00:38:51;;;;;;;13.90;5.20;;;6.10;97.30;;;;;;5028203;28;20242;-85
2022/01/05 00:41:17;;;;;;;10.70;4.80;;;6.10;97.30;;;;;;5028665;28;20278;-84
2022/01/05 00:43:42;;;;;;;15.37;5.13;;;6.10;97.30;;;;;;5028673;28;20208;-85
2022/01/05 00:46:08;;;;;;;12.53;5.20;;;6.10;97.30;;;;;;5029018;28;20177;-85
2022/01/05 00:48:34;;;;;;;19.60;5.93;;;6.20;97.30;;;;;;5030342;28;20211;-84
2022/01/05 00:51:02;;;;;;;16.43;6.40;;;6.20;97.30;;;;;;5030865;28;20411;-85
2022/01/05 00:53:29;;;;;;;10.37;5.03;;;6.20;97.30;;;;;;5029306;28;20929;-85
2022/01/05 00:55:54;;;;;;;12.73;5.93;;;6.20;97.30;;;;;;5029411;28;20879;-84
2022/01/05 00:58:20;;;;;;;11.23;5.77;;;6.20;97.30;;;;;;5029989;28;20490;-85
2022/01/05 01:00:45;;;;;;;14.97;5.60;;;6.20;97.30;;;;;;5032475;28;20176;-85
2022/01/05 01:03:11;;;;;;;11.93;5.17;;;6.20;97.30;;;;;;5033123;28;20180;-85
2022/01/05 01:05:36;;;;;;;12.80;5.23;;;6.10;97.30;;;;;;5033366;28;20462;-85
2022/01/05 01:08:02;;;;;;;11.50;4.27;;;6.10;97.30;;;;;;5033042;28;20234;-85
2022/01/05 01:10:27;;;;;;;12.33;5.70;;;6.10;97.30;;;;;;5032752;28;20211;-84
2022/01/05 01:12:53;;;;;;;10.87;4.30;;;6.10;97.30;;;;;;5034389;28;20180;-85
2022/01/05 01:15:18;;;;;;;12.90;5.47;;;6.10;97.30;;;;;;5034157;28;20247;-85
2022/01/05 01:17:44;;;;;;;12.40;3.80;;;6.10;97.30;;;;;;5034351;28;20211;-84
2022/01/05 01:20:10;;;;;;;8.80;4.80;;;6.00;97.30;;;;;;5032348;28;20228;-84
2022/01/05 01:22:36;;;;;;;9.37;3.90;;;6.00;97.30;;;;;;5034135;28;20183;-84
2022/01/05 01:25:04;;;;;;;5.40;2.97;;;6.00;97.30;;;;;;5032813;28;20643;-84
2022/01/05 01:27:30;;;;;;;5.60;2.63;;;5.90;97.30;;;;;;5032746;28;20421;-84
2022/01/05 01:29:55;;;;;;;5.97;2.73;;;5.90;97.30;;;;;;5032510;28;20530;-85
2022/01/05 01:32:21;;;;;;;3.90;2.50;;;5.90;97.30;;;;;;5032535;28;20181;-85
2022/01/05 01:34:47;;;;;;;3.60;2.07;;;5.90;97.30;;;;;;5032622;28;20567;-84
2022/01/05 01:37:12;;;;;;;6.33;2.40;;;5.90;97.30;;;;;;5034006;28;20583;-85
2022/01/05 01:39:38;;;;;;;3.73;2.33;;;5.90;97.30;;;;;;5032115;28;20288;-85
2022/01/05 01:42:04;;;;;;;6.30;2.63;;;5.80;97.30;;;;;;5032444;28;20693;-84
2022/01/05 01:44:29;;;;;;;8.17;2.97;;;5.90;97.30;;;;;;5032363;28;20176;-85
2022/01/05 01:46:57;;;;;;;4.90;2.70;;;5.90;97.30;;;;;;5033611;28;20184;-85
2022/01/05 01:49:22;;;;;;;12.30;2.50;;;5.90;97.30;;;;;;5032076;28;20197;-85
2022/01/05 01:51:48;;;;;;;4.47;3.00;;;5.90;97.30;;;;;;5032118;28;20943;-85
2022/01/05 01:54:13;;;;;;;5.37;2.97;;;5.90;97.30;;;;;;5032241;28;20181;-85
2022/01/05 01:56:39;;;;;;;7.80;3.80;;;5.90;97.30;;;;;;5032366;28;20196;-85
2022/01/05 01:59:05;;;;;;;4.93;3.30;;;5.90;97.30;;;;;;5032334;28;20215;-85
2022/01/05 02:01:30;;;;;;;4.83;3.00;;;5.90;97.30;;;;;;5031881;28;20525;-84
2022/01/05 02:03:56;;;;;;;4.80;2.80;;;5.90;97.30;;;;;;5033482;28;20647;-85
2022/01/05 02:06:22;;;;;;;5.63;2.97;;;5.90;97.30;;;;;;5032125;28;20738;-84
2022/01/05 02:08:48;;;;;;;3.93;2.70;;;5.90;97.30;;;;;;5028284;28;20196;-84
2022/01/05 02:11:14;;;;;;;4.60;2.70;;;5.90;97.30;;;;;;5030962;28;20191;-84
2022/01/05 02:13:41;;;;;;;4.63;2.73;;;5.90;97.30;;;;;;5031061;28;20426;-84
2022/01/05 02:16:07;;;;;;;4.00;3.10;;;5.90;97.30;;;;;;5032203;28;20462;-84
2022/01/05 02:21:10;;;;;;;6.53;2.63;;;5.90;97.30;;;;;;5032771;28;20428;-84
2022/01/05 02:23:36;;;;;;;4.37;2.40;;;5.90;97.30;;;;;;5015243;28;20419;-83
2022/01/05 02:26:04;;;;;;;4.80;3.10;;;5.90;97.30;;;;;;5031578;28;20573;-85
2022/01/05 02:28:29;;;;;;;8.60;4.30;;;5.90;97.30;;;;;;5029654;28;20611;-84
2022/01/05 02:30:56;;;;;;;11.97;5.07;;;5.60;97.30;;;;;;5031153;28;20452;-84
2022/01/05 02:33:22;;;;;;;14.23;5.30;;;5.30;97.30;;;;;;5031459;28;20210;-84
2022/01/05 02:35:48;;;;;;;7.77;3.57;;;5.10;97.30;;;;;;5032400;28;21087;-84
2022/01/05 02:38:18;;;;;;;8.40;3.50;;;5.00;97.30;;;;;;5031431;28;21014;-85
2022/01/05 02:40:43;;;;;;;5.57;2.90;;;4.90;97.30;;;;;;5031059;28;20425;-84
2022/01/05 02:43:09;;;;;;;4.90;2.67;;;4.80;97.30;;;;;;5031570;28;20411;-84
2022/01/05 02:45:35;;;;;;;5.20;1.50;;;4.70;97.30;;;;;;5030902;28;20192;-84
2022/01/05 02:48:00;;;;;;;8.10;2.13;;;4.40;97.30;;;;;;5031176;28;20189;-84
2022/01/05 02:50:26;;;;;;;2.93;1.73;;;4.30;97.30;;;;;;5031118;28;20204;-84
2022/01/05 02:52:51;;;;;;;1.93;1.17;;;4.20;97.30;;;;;;5031181;28;20176;-84
2022/01/05 02:55:17;;;;;;;4.30;1.80;;;4.10;97.30;;;;;;5031014;28;20184;-84
2022/01/05 02:57:42;;;;;;;4.23;1.80;;;4.00;97.30;;;;;;5031951;28;20198;-84
2022/01/05 03:00:10;;;;;;;7.50;2.03;;;4.00;97.30;;;;;;5030629;28;20192;-83
2022/01/05 03:02:36;;;;;;;8.27;1.70;;;3.90;97.30;;;;;;5030790;28;20187;-83
2022/01/05 03:05:02;;;;;;;7.23;1.93;;;3.80;97.30;;;;;;5030734;28;20419;-84
2022/01/05 03:07:28;;;;;;;3.53;1.50;;;3.70;97.30;;;;;;5030843;28;20184;-83
2022/01/05 03:09:53;;;;;;;5.10;1.70;;;3.70;97.30;;;;;;5030943;28;20443;-83
2022/01/05 03:12:19;;;;;;;7.83;1.70;;;3.60;97.30;;;;;;5030535;28;20558;-84
2022/01/05 03:14:45;;;;;;;2.60;1.37;;;3.50;97.30;;;;;;5031684;28;20263;-83
2022/01/05 03:17:10;;;;;;;5.23;2.20;;;3.50;97.30;;;;;;5031683;28;20203;-84
2022/01/05 03:19:36;;;;;;;6.73;2.00;;;3.40;97.30;;;;;;5030099;28;20239;-84
2022/01/05 03:22:01;;;;;;;6.00;1.87;;;3.40;97.30;;;;;;5031092;28;20687;-84
2022/01/05 03:24:27;;;;;;;4.40;1.40;;;3.40;97.30;;;;;;5031635;28;20183;-84
2022/01/05 03:26:52;;;;;;;3.00;2.10;;;3.30;97.30;;;;;;5030110;28;20172;-84
2022/01/05 03:29:18;;;;;;;1.77;1.53;;;3.20;97.30;;;;;;5030505;28;20287;-84
2022/01/05 03:31:43;;;;;;;4.03;1.70;;;3.20;97.30;;;;;;5030144;28;20184;-84
2022/01/05 03:34:16;;;;;;;4.00;1.80;;;3.10;97.30;;;;;;5030227;28;20194;-84
2022/01/05 03:36:42;;;;;;;2.53;1.73;;;3.10;97.30;;;;;;5030223;28;20207;-84
2022/01/05 03:39:10;;;;;;;3.73;1.53;;;3.00;97.30;;;;;;5030373;28;20439;-84
2022/01/05 03:41:35;;;;;;;8.90;1.53;;;3.00;97.30;;;;;;5029928;28;20215;-83
2022/01/05 03:44:01;;;;;;;12.33;2.13;;;3.00;97.30;;;;;;5030123;28;20446;-84
2022/01/05 03:46:27;;;;;;;6.07;1.67;;;3.00;97.30;;;;;;5029831;28;20315;-84
2022/01/05 03:48:53;;;;;;;4.23;1.60;;;3.00;97.30;;;;;;5029903;28;20466;-84
2022/01/05 03:51:19;;;;;;;3.50;1.67;;;3.00;97.30;;;;;;5030142;28;20237;-84
2022/01/05 03:53:44;;;;;;;5.57;1.63;;;2.90;97.30;;;;;;5030111;28;20200;-85
2022/01/05 03:56:10;;;;;;;3.23;1.70;;;2.90;97.30;;;;;;5029830;28;20200;-84
2022/01/05 03:58:35;;;;;;;2.47;1.97;;;2.90;97.30;;;;;;5029529;28;20278;-84
2022/01/05 04:01:01;;;;;;;8.23;2.20;;;2.90;97.30;;;;;;5030056;28;20816;-84
2022/01/05 04:03:26;;;;;;;3.03;1.97;;;2.90;97.30;;;;;;5029534;28;20229;-84
2022/01/05 04:05:52;;;;;;;2.93;1.93;;;2.80;97.30;;;;;;5029733;28;20184;-84
2022/01/05 04:08:18;;;;;;;4.73;2.00;;;2.80;97.30;;;;;;5029115;28;20181;-84
2022/01/05 04:10:43;;;;;;;5.63;2.97;;;2.80;97.30;;;;;;5029372;28;20184;-84
2022/01/05 04:13:09;;;;;;;4.20;2.23;;;2.70;97.30;;;;;;5030780;28;20411;-84
2022/01/05 04:15:35;;;;;;;7.23;2.90;;;2.70;97.30;;;;;;5028778;28;20184;-83
2022/01/05 04:18:00;;;;;;;6.03;3.03;;;2.70;97.30;;;;;;5026113;28;20210;-84
2022/01/05 04:20:26;;;;;;;6.33;2.90;;;2.60;97.30;;;;;;5029083;28;20234;-84
2022/01/05 04:22:52;;;;;;;5.77;2.27;;;2.60;97.30;;;;;;5028303;28;20263;-84
2022/01/05 04:25:17;;;;;;;6.17;2.97;;;2.60;97.30;;;;;;5027931;28;20647;-82
2022/01/05 04:27:43;;;;;;;12.23;3.03;;;2.70;97.30;;;;;;5030048;28;20168;-84
2022/01/05 04:30:11;;;;;;;5.10;2.97;;;2.70;97.30;;;;;;5028538;28;20689;-84
2022/01/05 04:32:36;;;;;;;5.97;3.07;;;2.70;97.30;;;;;;5030229;28;20239;-84
2022/01/05 04:35:03;;;;;;;8.33;3.73;;;2.70;97.30;;;;;;5032416;28;20951;-84
2022/01/05 04:37:29;;;;;;;11.50;3.90;;;2.70;97.30;;;;;;5032388;28;20223;-84
2022/01/05 04:39:55;;;;;;;8.63;4.17;;;2.70;97.30;;;;;;5033285;28;20434;-84
2022/01/05 04:42:21;;;;;;;9.73;3.87;;;2.70;97.30;;;;;;5032237;28;20971;-84
2022/01/05 04:44:46;;;;;;;4.90;2.90;;;2.70;97.30;;;;;;5031658;28;20176;-84
2022/01/05 04:47:12;;;;;;;6.93;3.53;;;2.80;97.30;;;;;;5031825;28;20184;-83
2022/01/05 04:49:38;;;;;;;12.70;3.90;;;2.80;97.30;;;;;;5031170;28;20291;-84
2022/01/05 04:52:07;;;;;;;7.00;3.60;;;2.80;97.30;;;;;;5031346;28;20189;-84
2022/01/05 04:54:32;;;;;;;12.40;4.63;;;2.90;97.30;;;;;;5031369;28;20800;-84
2022/01/05 04:56:58;;;;;;;11.43;5.20;;;2.90;97.30;;;;;;5031784;28;20467;-84
2022/01/05 04:59:26;;;;;;;10.37;4.87;;;2.90;97.30;;;;;;5031339;28;20212;-84
2022/01/05 05:01:51;;;;;;;9.37;4.60;;;2.90;97.30;;;;;;5031747;28;20212;-85
2022/01/05 05:04:17;;;;;;;7.97;4.97;;;2.90;97.30;;;;;;5031654;28;20450;-84
2022/01/05 05:06:42;;;;;;;6.53;3.73;;;2.80;97.30;;;;;;5032260;28;20184;-84
2022/01/05 05:09:08;;;;;;;7.50;4.00;;;2.70;97.30;;;;;;5032837;28;20745;-84
2022/01/05 05:11:33;;;;;;;8.00;3.57;;;2.60;97.30;;;;;;5032662;28;20428;-84
2022/01/05 05:13:59;;;;;;;6.03;3.37;;;2.40;97.30;;;;;;5032493;28;20185;-84
2022/01/05 05:16:25;;;;;;;7.40;3.37;;;2.30;97.30;;;;;;5032229;28;20223;-84
2022/01/05 05:18:51;;;;;;;9.07;2.90;;;2.20;97.30;;;;;;5032012;28;20236;-84
2022/01/05 05:21:16;;;;;;;14.23;3.67;;;2.10;97.30;;;;;;5032345;28;20375;-84
2022/01/05 05:23:42;;;;;;;7.47;3.20;;;2.10;97.30;;;;;;5032507;28;20177;-83
2022/01/05 05:26:07;;;;;;;6.00;3.00;;;2.00;97.30;;;;;;5032348;28;20258;-82
2022/01/05 05:28:33;;;;;;;7.90;3.20;;;2.00;97.30;;;;;;5032172;28;20177;-83
2022/01/05 05:30:58;;;;;;;7.50;3.37;;;1.80;97.30;;;;;;5032899;28;20450;-83
2022/01/05 05:33:24;;;;;;;6.70;3.00;;;1.80;97.30;;;;;;5032992;28;20714;-82
2022/01/05 05:35:49;;;;;;;8.17;3.37;;;1.80;97.30;;;;;;5033501;28;20215;-82
2022/01/05 05:38:15;;;;;;;5.33;2.90;;;1.70;97.30;;;;;;5033305;28;20173;-82
2022/01/05 05:40:45;;;;;;;8.57;3.37;;;1.70;97.30;;;;;;5034797;28;20231;-83
2022/01/05 05:43:11;;;;;;;6.87;3.87;;;1.70;97.30;;;;;;5032628;28;20426;-83
2022/01/05 05:45:37;;;;;;;10.60;3.87;;;1.70;97.30;;;;;;5032583;28;20512;-83
2022/01/05 05:48:02;;;;;;;8.70;3.60;;;1.70;97.30;;;;;;5032936;28;20463;-83
2022/01/05 05:50:29;;;;;;;8.40;3.20;;;1.70;97.30;;;;;;5034452;28;20503;-83
2022/01/05 05:52:55;;;;;;;5.07;3.23;;;1.60;97.30;;;;;;5034349;28;20587;-80
2022/01/05 05:55:20;;;;;;;5.20;3.07;;;1.60;97.30;;;;;;5033448;28;20423;-82
2022/01/05 05:57:46;;;;;;;6.20;3.10;;;1.60;97.30;;;;;;5034028;28;20223;-83
2022/01/05 06:00:12;;;;;;;11.27;3.50;;;1.50;97.30;;;;;;5033797;28;20254;-82
2022/01/05 06:02:38;;;;;;;8.77;4.27;;;1.50;97.30;;;;;;5032870;28;20563;-80
2022/01/05 06:05:04;;;;;;;7.20;3.27;;;1.50;97.30;;;;;;5034123;28;20423;-82
2022/01/05 06:07:30;;;;;;;4.80;2.33;;;1.40;97.30;;;;;;5034166;28;20243;-83
2022/01/05 06:09:59;;;;;;;8.60;4.27;;;1.40;97.30;;;;;;5033981;28;20459;-83
2022/01/05 06:12:25;;;;;;;5.73;3.47;;;1.40;97.30;;;;;;5034446;28;20218;-82
2022/01/05 06:14:50;;;;;;;6.67;3.53;;;1.30;97.30;;;;;;5034448;28;20940;-83
2022/01/05 06:17:16;;;;;;;11.33;3.73;;;1.30;97.30;;;;;;5033705;28;20471;-82
2022/01/05 06:19:41;;;;;;;16.53;3.73;;;1.30;97.30;;;;;;5034260;28;20259;-82
2022/01/05 06:22:07;;;;;;;7.90;2.93;;;1.30;97.30;;;;;;5025493;28;20181;-79
2022/01/05 06:24:34;;;;;;;5.70;3.00;;;1.30;97.30;;;;;;5023773;28;20189;-83
2022/01/05 06:27:00;;;;;;;6.13;3.47;;;1.30;97.30;;;;;;5028541;28;20666;-79
2022/01/05 06:29:26;;;;;;;4.97;2.70;;;1.30;97.30;;;;;;5028891;28;20443;-83
2022/01/05 06:31:51;;;;;;;7.30;2.80;;;1.30;97.30;;;;;;5026627;28;20195;-83
2022/01/05 06:34:17;;;;;;;4.13;3.23;;;1.30;97.30;;;;;;5029554;28;20315;-83
2022/01/05 06:36:42;;;;;;;4.30;3.10;;;1.30;97.30;;;;;;5026313;28;20221;-82
2022/01/05 06:39:11;;;;;;;7.00;2.83;;;1.30;97.30;;;;;;5036379;28;20205;-82
2022/01/05 06:41:39;;;;;;;6.87;3.30;;;1.30;97.30;;;;;;5026616;28;20169;-81
2022/01/05 06:44:08;;;;;;;3.73;2.70;;;1.30;97.30;;;;;;5026811;28;20423;-81
2022/01/05 06:46:33;;;;;;;6.60;2.13;;;1.30;97.30;;;;;;5038418;28;20784;-83
2022/01/05 06:48:59;;;;;;;8.47;2.60;;;1.30;97.30;;;;;;5029712;28;20455;-82
2022/01/05 06:51:24;;;;;;;7.27;3.10;;;1.30;97.30;;;;;;5021291;28;20177;-82
2022/01/05 06:53:50;;;;;;;6.27;3.00;;;1.30;97.30;;;;;;5031908;28;20234;-82
2022/01/05 06:56:15;;;;;;;12.57;2.70;;;1.30;97.30;;;;;;5025495;28;20202;-83
2022/01/05 06:58:41;;;;;;;5.20;2.80;;;1.30;97.30;;;;;;5032507;28;20200;-82
2022/01/05 07:01:06;;;;;;;8.60;2.97;;;1.40;97.30;;;;;;5028850;28;20185;-80
2022/01/05 07:03:32;;;;;;;2.80;2.00;;;1.30;97.30;;;;;;5027730;28;20516;-82
2022/01/05 07:05:57;;;;;;;7.87;2.83;;;1.40;97.30;;;;;;5037473;28;20181;-83
2022/01/05 07:08:23;;;;;;;9.03;2.70;;;1.40;97.30;;;;;;5029890;28;20667;-82
2022/01/05 07:10:48;;;;;;;7.53;3.00;;;1.40;97.30;;;;;;5030935;28;20176;-80
2022/01/05 07:13:14;;;;;;;5.20;2.30;;;1.40;97.30;;;;;;5032080;28;20791;-83
2022/01/05 07:15:39;;;;;;;10.93;3.83;;;1.40;97.30;;;;;;5030713;28;20580;-81
2022/01/05 07:18:05;;;;;;;8.43;2.30;;;1.40;97.30;;;;;;5032377;28;20548;-82
2022/01/05 07:20:30;;;;;;;11.13;2.30;;;1.40;97.30;;;;;;5014954;28;20221;-82
2022/01/05 07:22:56;;;;;;;6.00;2.57;;;1.50;97.30;;;;;;5032140;28;20188;-82
2022/01/05 07:25:22;;;;;;;8.10;2.40;;;1.40;97.30;;;;;;5032577;28;20191;-83
2022/01/05 07:27:47;;;;;;;6.13;2.30;;;1.40;97.30;;;;;;5032836;28;20215;-82
2022/01/05 07:30:13;;;;;;;12.80;3.20;;;1.50;97.30;;;;;;5017747;28;20192;-82
2022/01/05 07:32:40;;;;;;;4.50;3.10;;;1.50;97.30;;;;;;5016388;28;20256;-82
2022/01/05 07:35:07;;;;;;;7.80;3.17;;;1.50;97.30;;;;;;5036023;28;20180;-82
2022/01/05 07:37:33;;;;;;;8.37;2.93;;;1.40;97.30;;;;;;5035910;28;20463;-81
2022/01/05 07:39:58;;;;;;;5.90;2.90;;;1.40;97.30;;;;;;5035639;28;20438;-81
2022/01/05 07:42:24;;;;;;;6.17;2.57;;;1.40;97.30;;;;;;5036920;28;20180;-81
2022/01/05 07:44:50;;;;;;;7.10;3.53;;;1.50;97.30;;;;;;5035589;28;20675;-81
2022/01/05 07:47:15;;;;;;;12.93;3.70;;;1.40;97.30;;;;;;5031046;28;20183;-78
2022/01/05 07:49:41;;;;;;;6.50;2.83;;;1.50;97.30;;;;;;5026880;28;20458;-83
2022/01/05 07:52:07;;;;;;;9.10;3.33;;;1.50;97.30;;;;;;5033633;28;20164;-81
2022/01/05 07:54:33;;;;;;;9.10;3.40;;;1.50;97.30;;;;;;5034138;28;20713;-82
2022/01/05 07:56:59;;;;;;;15.83;3.20;;;1.50;97.30;;;;;;5036124;28;20402;-81
2022/01/05 07:59:24;;;;;;;7.93;3.60;;;1.50;97.30;;;;;;5033228;28;20204;-83
2022/01/05 08:01:50;;;;;;;10.70;3.60;;;1.50;97.30;;;;;;5034353;28;20481;-82
2022/01/05 08:04:16;;;;;;;12.33;4.00;;;1.50;97.30;;;;;;5034122;28;20660;-82
2022/01/05 08:06:42;;;;;;;13.13;3.60;;;1.50;97.30;;;;;;5033402;28;20565;-81
2022/01/05 08:09:08;;;;;;;6.43;3.37;;;1.50;97.30;;;;;;5033697;28;20675;-81
2022/01/05 08:11:33;;;;;;;9.37;4.10;;;1.50;97.30;;;;;;5033480;28;20419;-83
2022/01/05 08:13:59;;;;;;;11.40;3.20;;;1.50;97.30;;;;;;5034359;28;20411;-81
2022/01/05 08:16:24;;;;;;;10.23;3.00;;;1.60;97.30;;;;;;5032969;28;20212;-80
2022/01/05 08:18:51;;;;;;;7.73;3.13;;;1.60;97.30;;;;;;5033122;28;20627;-82
2022/01/05 08:21:17;;;;;;;6.60;3.03;;;1.60;97.30;;;;;;5033826;28;20506;-81
2022/01/05 08:23:43;;;;;;;17.67;2.80;;;1.60;97.30;;;;;;5033648;28;20180;-82
2022/01/05 08:26:08;;;;;;;6.67;2.73;;;1.60;97.30;;;;;;5033755;28;20749;-82
2022/01/05 08:28:35;;;;;;;5.60;3.03;;;1.70;97.30;;;;;;5032171;28;20340;-82
2022/01/05 08:31:01;;;;;;;2.47;2.33;;;1.70;97.30;;;;;;5032281;28;20204;-81
2022/01/05 08:33:27;;;;;;;8.00;2.80;;;1.70;97.30;;;;;;5034515;28;20812;-81
2022/01/05 08:35:52;;;;;;;2.70;2.13;;;1.70;97.30;;;;;;5032877;28;20572;-81
2022/01/05 08:38:18;;;;;;;4.77;2.80;;;1.70;97.30;;;;;;5034496;28;20196;-81
2022/01/05 08:40:44;;;;;;;2.77;2.00;;;1.70;97.30;;;;;;5034004;28;20184;-82
2022/01/05 08:43:12;;;;;;;10.10;3.03;;;1.80;97.30;;;;;;5032602;28;20184;-81
2022/01/05 08:45:38;;;;;;;5.50;2.90;;;1.80;97.30;;;;;;5033009;28;21008;-81
2022/01/05 08:48:05;;;;;;;12.87;2.67;;;1.80;97.30;;;;;;5032938;28;20439;-82
2022/01/05 08:50:33;;;;;;;4.93;2.37;;;1.90;97.30;;;;;;5032833;28;20497;-81
2022/01/05 08:53:00;;;;;;;14.27;3.30;;;1.90;97.30;;;;;;5033254;28;20411;-81
2022/01/05 08:55:30;;;;;;;5.70;2.27;;;1.90;97.30;;;;;;5032987;28;20837;-82
2022/01/05 08:57:56;;;;;;;10.63;2.30;;;1.90;97.30;;;;;;5035156;28;20434;-82
2022/01/05 09:00:22;;;;;;;4.60;2.20;;;1.90;97.30;;;;;;5033038;28;20446;-82
2022/01/05 09:02:48;;;;;;;4.53;2.77;;;2.00;97.30;;;;;;5033328;28;20418;-82
2022/01/05 09:05:13;;;;;;;4.80;2.40;;;2.00;97.30;;;;;;5032783;28;20243;-81
2022/01/05 09:07:39;;;;;;;6.10;2.27;;;2.00;97.30;;;;;;5032969;28;20423;-81
2022/01/05 09:10:05;;;;;;;4.20;1.90;;;2.00;97.30;;;;;;5033555;28;20708;-81
2022/01/05 09:12:32;;;;;;;7.00;2.40;;;2.00;97.30;;;;;;5033200;28;20246;-81
2022/01/05 09:14:58;;;;;;;7.07;2.10;;;2.00;97.30;;;;;;5033042;28;20419;-82
2022/01/05 09:17:25;;;;;;;4.27;2.57;;;2.10;97.30;;;;;;5033263;28;20606;-82
2022/01/05 09:19:51;;;;;;;5.30;2.40;;;2.10;97.30;;;;;;5035440;28;20471;-82
2022/01/05 09:22:17;;;;;;;6.50;4.50;;;2.10;97.30;;;;;;5037637;28;20702;-81
2022/01/05 09:24:42;;;;;;;10.00;2.77;;;2.10;97.30;;;;;;5037550;28;20411;-82
2022/01/05 09:27:08;;;;;;;5.60;2.40;;;2.10;97.30;;;;;;5037721;28;20765;-81
2022/01/05 09:29:34;;;;;;;11.30;4.13;;;2.10;97.30;;;;;;5037144;28;20200;-81
2022/01/05 09:32:05;;;;;;;9.80;2.83;;;2.10;97.30;;;;;;5037345;28;20180;-81
2022/01/05 09:34:31;;;;;;;10.10;2.83;;;2.20;97.30;;;;;;5039225;28;20546;-82
2022/01/05 09:37:02;;;;;;;5.63;2.90;;;2.20;97.30;;;;;;5037609;28;20461;-81
2022/01/05 09:42:12;;;;;;;19.73;3.20;;;2.50;97.30;;;;;;5039101;28;20414;-82
2022/01/05 09:44:43;;;;;;;10.23;4.20;;;2.60;97.30;;;;;;5037618;28;20499;-81
2022/01/05 09:47:11;;;;;;;18.53;3.87;;;2.60;97.30;;;;;;5038752;28;20505;-82
2022/01/05 09:49:40;;;;;;;7.13;3.10;;;2.70;97.30;;;;;;5037958;28;20443;-81
2022/01/05 09:52:11;;;;;;;8.37;3.13;;;2.80;97.30;;;;;;5039494;28;20425;-82
2022/01/05 09:54:44;;;;;;;5.67;2.60;;;2.90;97.30;;;;;;5039848;28;20472;-81
2022/01/05 09:57:11;;;;;;;7.77;3.23;;;3.00;97.30;;;;;;5037693;28;20474;-82
2022/01/05 09:59:37;;;;;;;6.57;3.80;;;3.00;97.30;;;;;;5037609;28;20876;-82
2022/01/05 10:02:04;;;;;;;8.40;3.33;;;3.10;97.30;;;;;;5038421;28;20906;-82
2022/01/05 10:04:31;;;;;;;8.37;2.70;;;3.10;97.30;;;;;;5038157;28;20422;-82
2022/01/05 10:06:57;;;;;;;7.53;2.80;;;3.20;97.30;;;;;;5039023;28;20415;-81
2022/01/05 10:09:22;;;;;;;8.00;3.07;;;3.20;97.30;;;;;;5037899;28;20526;-81
2022/01/05 10:11:48;;;;;;;10.63;2.90;;;3.30;97.30;;;;;;5039780;28;20180;-81
2022/01/05 10:14:14;;;;;;;8.40;3.03;;;3.30;97.30;;;;;;5039522;28;20210;-82
2022/01/05 10:17:08;;;;;;;12.20;3.07;;;3.40;97.30;;;;;;5039196;28;20563;-80
2022/01/05 10:19:36;;;;;;;5.10;2.87;;;3.40;97.30;;;;;;5038893;28;20235;-80
2022/01/05 10:22:03;;;;;;;7.17;3.40;;;3.50;97.30;;;;;;5039284;28;20415;-81
2022/01/05 10:24:49;;;;;;;9.03;2.97;;;3.50;97.30;;;;;;5039700;28;20518;-80
2022/01/05 10:27:16;;;;;;;3.00;2.40;;;3.50;97.30;;;;;;5041651;28;20951;-82
2022/01/05 10:30:05;;;;;;;8.43;2.90;;;3.60;97.30;;;;;;5042651;28;20478;-81
2022/01/05 10:32:35;;;;;;;12.60;2.50;;;3.70;97.30;;;;;;5041230;28;20566;-82
2022/01/05 10:35:13;;;;;;;7.47;2.60;;;3.70;97.30;;;;;;5036251;28;20460;-82
2022/01/05 10:37:42;;;;;;;4.83;2.83;;;3.70;97.30;;;;;;5034679;28;20485;-82
2022/01/05 10:40:12;;;;;;;4.83;2.40;;;3.80;97.30;;;;;;5034551;28;20984;-83
2022/01/05 10:42:39;;;;;;;5.30;2.97;;;3.90;97.30;;;;;;5034549;28;20422;-82
2022/01/05 10:45:08;;;;;;;5.70;2.70;;;3.90;97.30;;;;;;5035563;28;20416;-82
2022/01/05 10:47:35;;;;;;;3.67;2.07;;;4.00;97.30;;;;;;5035115;28;20975;-82
2022/01/05 10:50:02;;;;;;;4.40;2.27;;;4.00;97.30;;;;;;5034702;28;20502;-82
2022/01/05 10:52:35;;;;;;;8.33;2.60;;;4.00;97.30;;;;;;5035235;28;20453;-83
2022/01/05 10:55:16;;;;;;;6.70;2.27;;;4.10;97.30;;;;;;5034486;28;20423;-81
2022/01/05 10:58:04;;;;;;;6.07;2.63;;;4.10;97.30;;;;;;5034994;28;20462;-82
2022/01/05 11:00:46;;;;;;;4.50;2.40;;;3.90;97.30;;;;;;5033301;28;20439;-82
2022/01/05 11:03:35;;;;;;;6.37;2.90;;;3.80;97.30;;;;;;5033651;28;20422;-83
2022/01/05 11:06:16;;;;;;;10.00;2.03;;;3.80;97.30;;;;;;5034405;28;20477;-82
2022/01/05 11:09:00;;;;;;;2.90;2.17;;;3.60;97.30;;;;;;5035279;28;21040;-82
2022/01/05 11:11:41;;;;;;;8.27;2.03;;;3.50;97.30;;;;;;5034251;28;20400;-82
2022/01/05 11:14:08;;;;;;;3.50;2.00;;;3.50;97.30;;;;;;5033267;28;20419;-81
2022/01/05 11:16:37;;;;;;;4.40;2.50;;;3.60;97.30;;;;;;5033094;28;20463;-82
2022/01/05 11:19:24;;;;;;;4.53;2.17;;;3.80;97.30;;;;;;5033855;28;20525;-81
2022/01/05 11:22:23;;;;;;;2.90;1.80;;;3.80;97.30;;;;;;5034396;28;20691;-81
2022/01/05 11:24:51;;;;;;;5.33;2.20;;;3.70;97.30;;;;;;5030415;28;20442;-82
2022/01/05 11:27:22;;;;;;;6.73;2.47;;;3.60;97.30;;;;;;5023677;28;20862;-82
2022/01/05 11:29:48;;;;;;;2.37;1.80;;;3.60;97.30;;;;;;5031582;28;20438;-82
2022/01/05 11:32:20;;;;;;;13.63;3.40;;;3.60;97.30;;;;;;5033711;28;20446;-80
2022/01/05 11:34:46;;;;;;;4.57;2.30;;;3.80;97.30;;;;;;5026051;28;20347;-82
2022/01/05 11:37:12;;;;;;;3.07;1.97;;;3.70;97.30;;;;;;5022836;28;20502;-82
2022/01/05 11:39:44;;;;;;;5.43;2.30;;;3.70;97.30;;;;;;5023898;28;20432;-82
2022/01/05 11:42:13;;;;;;;4.93;2.23;;;3.80;97.30;;;;;;5028004;28;20655;-82
2022/01/05 11:44:51;;;;;;;5.00;2.20;;;3.80;97.30;;;;;;5033768;28;20438;-82
2022/01/05 11:47:23;;;;;;;3.03;2.00;;;3.80;97.30;;;;;;5031997;28;20423;-82
2022/01/05 11:49:50;;;;;;;3.73;2.30;;;4.00;97.30;;;;;;5028639;28;20953;-82
2022/01/05 11:52:16;;;;;;;8.77;2.63;;;4.20;97.30;;;;;;5024076;28;20426;-81
2022/01/05 11:55:04;;;;;;;5.70;2.63;;;4.40;97.30;;;;;;5025987;28;20420;-82
2022/01/05 11:57:30;;;;;;;6.80;2.93;;;4.50;97.30;;;;;;5031742;28;20467;-82
2022/01/05 12:00:16;;;;;;;4.10;2.07;;;4.70;97.30;;;;;;5032510;28;20439;-82
2022/01/05 12:02:42;;;;;;;10.33;1.87;;;4.70;97.30;;;;;;5027422;28;20180;-82
2022/01/05 12:05:07;;;;;;;8.30;2.60;;;5.00;97.30;;;;;;5031947;28;20938;-81
2022/01/05 12:07:45;;;;;;;2.00;1.77;;;5.10;97.30;;;;;;5032788;28;20277;-82
2022/01/05 12:10:23;;;;;;;5.37;2.37;;;4.90;97.30;;;;;;5024094;28;20199;-83
2022/01/05 12:12:57;;;;;;;6.50;2.07;;;4.50;97.30;;;;;;5027367;28;20494;-82
2022/01/05 12:15:45;;;;;;;6.27;1.90;;;4.30;97.30;;;;;;5049184;28;20423;-82
2022/01/05 12:18:19;;;;;;;3.73;2.10;;;4.00;97.30;;;;;;5027887;28;20834;-82
2022/01/05 12:20:44;;;;;;;4.00;2.10;;;3.90;97.30;;;;;;5028475;28;20549;-82
2022/01/05 12:23:28;;;;;;;2.80;1.60;;;3.80;97.30;;;;;;5035393;28;20435;-83
2022/01/05 12:26:07;;;;;;;5.53;2.13;;;3.80;97.30;;;;;;5029104;28;20657;-83
2022/01/05 12:28:36;;;;;;;5.73;1.97;;;3.80;97.30;;;;;;5042814;28;20716;-82
2022/01/05 12:31:03;;;;;;;2.43;2.17;;;3.80;97.30;;;;;;5032971;28;20936;-82
2022/01/05 12:33:43;;;;;;;7.40;2.47;;;3.80;97.30;;;;;;5044622;28;20411;-83
2022/01/05 12:36:09;;;;;;;7.53;3.20;;;3.80;97.30;;;;;;5026266;28;21089;-83
2022/01/05 12:38:45;;;;;;;6.13;1.90;;;3.80;97.30;;;;;;5042402;28;20517;-83
2022/01/05 12:41:36;;;;;;;8.30;2.33;;;3.80;97.30;;;;;;5032829;28;20171;-83
2022/01/05 12:44:11;;;;;;;6.10;2.60;;;3.70;97.30;;;;;;5048552;28;20407;-83
2022/01/05 12:46:56;;;;;;;6.20;2.73;;;3.70;97.30;;;;;;5048188;28;20405;-83
2022/01/05 12:49:28;;;;;;;12.97;2.40;;;3.70;97.30;;;;;;5015502;28;20519;-82
2022/01/05 12:52:15;;;;;;;6.77;2.43;;;3.80;97.30;;;;;;5024467;28;20997;-83
2022/01/05 12:54:47;;;;;;;4.67;2.40;;;3.80;97.30;;;;;;5047861;28;20401;-82
2022/01/05 12:57:23;;;;;;;6.97;2.77;;;3.90;97.30;;;;;;5037082;28;20450;-83
2022/01/05 12:59:51;;;;;;;8.30;2.37;;;3.90;97.30;;;;;;5045203;28;20473;-83
2022/01/05 13:02:22;;;;;;;4.40;2.37;;;4.00;97.30;;;;;;5036454;28;20427;-82
2022/01/05 13:04:48;;;;;;;3.30;2.50;;;4.00;97.30;;;;;;5034222;28;20422;-82